Arden, New York
Current Conditions -  °F | °C
As of 11:45 AM on Friday 24 Oct 2014 (Local Time) from KSWF Reporting Station
Overcast Overcast  
Wind Chill: 54°   Ceiling: 3000
Heat Index: 54°   Visibility: 20mi
Dew Point: 46°   Wind: 12mph
Humidity: 77%   Direction: 350°N
Pressure: 29.83"   Gusts: 17mph
Location:  41.27°N, 74.15°W
Report Text: KSWF 241545Z 35010G15KT 20SM OVC030 12/08 A2983
Loading
Personal Weather Stations






























Interactive Weather Map
Tropical Storm Tracking
New forecast layout! Learn more

10-Day Weather Forecast

Advertisements
Track Severe Weather on mobile